sensor_id;sensor_type;location;lat;lon;timestamp;P1;durP1;ratioP1;P2;durP2;ratioP2
45274;SDS011;31019;43.780;25.948;2023-08-21T00:05:47;38.22;;;36.53;;
45274;SDS011;31019;43.780;25.948;2023-08-21T00:11:31;38.67;;;36.97;;
45274;SDS011;31019;43.780;25.948;2023-08-21T00:14:05;41.67;;;39.78;;
45274;SDS011;31019;43.780;25.948;2023-08-21T00:16:42;56.15;;;53.70;;
45274;SDS011;31019;43.780;25.948;2023-08-21T00:19:09;46.78;;;44.60;;
45274;SDS011;31019;43.780;25.948;2023-08-21T00:21:37;49.40;;;47.20;;
45274;SDS011;31019;43.780;25.948;2023-08-21T00:24:14;48.92;;;46.83;;
45274;SDS011;31019;43.780;25.948;2023-08-21T00:26:42;42.17;;;40.33;;
45274;SDS011;31019;43.780;25.948;2023-08-21T00:29:09;54.50;;;51.47;;
45274;SDS011;31019;43.780;25.948;2023-08-21T00:34:41;44.38;;;41.78;;
45274;SDS011;31019;43.780;25.948;2023-08-21T00:40:17;41.20;;;39.40;;
45274;SDS011;31019;43.780;25.948;2023-08-21T00:42:54;45.55;;;43.13;;
45274;SDS011;31019;43.780;25.948;2023-08-21T00:51:13;36.90;;;35.28;;
45274;SDS011;31019;43.780;25.948;2023-08-21T01:02:04;40.97;;;39.13;;
45274;SDS011;31019;43.780;25.948;2023-08-21T01:07:19;39.10;;;37.40;;
45274;SDS011;31019;43.780;25.948;2023-08-21T01:09:52;34.75;;;33.15;;
45274;SDS011;31019;43.780;25.948;2023-08-21T01:12:25;38.03;;;36.33;;
45274;SDS011;31019;43.780;25.948;2023-08-21T01:15:00;37.35;;;35.63;;
45274;SDS011;31019;43.780;25.948;2023-08-21T01:17:33;63.10;;;60.30;;
45274;SDS011;31019;43.780;25.948;2023-08-21T01:20:18;38.17;;;36.55;;
45274;SDS011;31019;43.780;25.948;2023-08-21T01:22:46;36.80;;;35.10;;
45274;SDS011;31019;43.780;25.948;2023-08-21T01:25:14;38.17;;;36.47;;
45274;SDS011;31019;43.780;25.948;2023-08-21T01:27:51;35.60;;;33.80;;
45274;SDS011;31019;43.780;25.948;2023-08-21T01:33:14;38.03;;;36.33;;
45274;SDS011;31019;43.780;25.948;2023-08-21T01:35:55;44.35;;;42.45;;
45274;SDS011;31019;43.780;25.948;2023-08-21T01:41:26;43.67;;;41.78;;
45274;SDS011;31019;43.780;25.948;2023-08-21T01:44:00;41.38;;;39.58;;
45274;SDS011;31019;43.780;25.948;2023-08-21T01:46:27;31.35;;;29.75;;
45274;SDS011;31019;43.780;25.948;2023-08-21T01:48:54;34.38;;;32.75;;
45274;SDS011;31019;43.780;25.948;2023-08-21T01:51:28;40.55;;;38.65;;
45274;SDS011;31019;43.780;25.948;2023-08-21T01:53:55;35.65;;;34.05;;
45274;SDS011;31019;43.780;25.948;2023-08-21T01:56:28;44.53;;;42.63;;
45274;SDS011;31019;43.780;25.948;2023-08-21T01:59:03;46.30;;;43.97;;
45274;SDS011;31019;43.780;25.948;2023-08-21T02:01:31;54.90;;;52.45;;
45274;SDS011;31019;43.780;25.948;2023-08-21T02:03:59;54.20;;;48.85;;
45274;SDS011;31019;43.780;25.948;2023-08-21T02:06:40;55.20;;;52.80;;
45274;SDS011;31019;43.780;25.948;2023-08-21T02:09:06;53.55;;;51.35;;
45274;SDS011;31019;43.780;25.948;2023-08-21T02:11:51;47.80;;;45.72;;
45274;SDS011;31019;43.780;25.948;2023-08-21T02:17:31;72.78;;;69.78;;
45274;SDS011;31019;43.780;25.948;2023-08-21T02:19:58;76.00;;;72.88;;
45274;SDS011;31019;43.780;25.948;2023-08-21T02:22:33;65.78;;;62.97;;
45274;SDS011;31019;43.780;25.948;2023-08-21T02:27:36;68.05;;;65.05;;
45274;SDS011;31019;43.780;25.948;2023-08-21T02:30:03;77.38;;;74.18;;
45274;SDS011;31019;43.780;25.948;2023-08-21T02:32:30;68.72;;;65.75;;
45274;SDS011;31019;43.780;25.948;2023-08-21T02:34:59;64.68;;;61.97;;
45274;SDS011;31019;43.780;25.948;2023-08-21T02:37:25;55.40;;;53.10;;
45274;SDS011;31019;43.780;25.948;2023-08-21T02:39:52;55.35;;;53.00;;
45274;SDS011;31019;43.780;25.948;2023-08-21T02:42:21;48.22;;;46.13;;
45274;SDS011;31019;43.780;25.948;2023-08-21T02:44:50;49.55;;;47.50;;
45274;SDS011;31019;43.780;25.948;2023-08-21T02:49:53;53.72;;;51.33;;
45274;SDS011;31019;43.780;25.948;2023-08-21T02:52:28;65.70;;;63.00;;
45274;SDS011;31019;43.780;25.948;2023-08-21T02:55:06;58.78;;;56.38;;
45274;SDS011;31019;43.780;25.948;2023-08-21T02:57:33;43.78;;;41.67;;
45274;SDS011;31019;43.780;25.948;2023-08-21T03:03:04;48.10;;;46.03;;
45274;SDS011;31019;43.780;25.948;2023-08-21T03:05:33;57.70;;;55.30;;
45274;SDS011;31019;43.780;25.948;2023-08-21T03:08:00;56.70;;;54.30;;
45274;SDS011;31019;43.780;25.948;2023-08-21T03:13:18;39.40;;;37.45;;
45274;SDS011;31019;43.780;25.948;2023-08-21T03:18:53;35.33;;;33.72;;
45274;SDS011;31019;43.780;25.948;2023-08-21T03:21:21;33.78;;;32.00;;
45274;SDS011;31019;43.780;25.948;2023-08-21T03:23:58;34.75;;;33.15;;
45274;SDS011;31019;43.780;25.948;2023-08-21T03:26:32;32.10;;;30.50;;
45274;SDS011;31019;43.780;25.948;2023-08-21T03:28:59;26.83;;;25.48;;
45274;SDS011;31019;43.780;25.948;2023-08-21T03:31:33;29.00;;;27.52;;
45274;SDS011;31019;43.780;25.948;2023-08-21T03:34:09;23.77;;;22.48;;
45274;SDS011;31019;43.780;25.948;2023-08-21T03:36:36;21.65;;;20.35;;
45274;SDS011;31019;43.780;25.948;2023-08-21T03:39:08;21.83;;;20.52;;
45274;SDS011;31019;43.780;25.948;2023-08-21T03:44:57;23.15;;;21.65;;
45274;SDS011;31019;43.780;25.948;2023-08-21T03:47:27;22.38;;;20.88;;
45274;SDS011;31019;43.780;25.948;2023-08-21T03:50:05;21.38;;;20.08;;
45274;SDS011;31019;43.780;25.948;2023-08-21T03:52:34;22.17;;;20.30;;
45274;SDS011;31019;43.780;25.948;2023-08-21T03:55:07;23.65;;;22.45;;
45274;SDS011;31019;43.780;25.948;2023-08-21T03:57:35;23.45;;;22.10;;
45274;SDS011;31019;43.780;25.948;2023-08-21T04:00:05;23.63;;;22.35;;
45274;SDS011;31019;43.780;25.948;2023-08-21T04:02:49;22.35;;;21.05;;
45274;SDS011;31019;43.780;25.948;2023-08-21T04:05:16;22.15;;;20.85;;
45274;SDS011;31019;43.780;25.948;2023-08-21T04:07:43;22.05;;;20.75;;
45274;SDS011;31019;43.780;25.948;2023-08-21T04:10:10;22.45;;;20.95;;
45274;SDS011;31019;43.780;25.948;2023-08-21T04:12:51;23.15;;;21.55;;
45274;SDS011;31019;43.780;25.948;2023-08-21T04:23:48;22.20;;;20.60;;
45274;SDS011;31019;43.780;25.948;2023-08-21T04:26:15;20.63;;;19.33;;
45274;SDS011;31019;43.780;25.948;2023-08-21T04:28:51;20.60;;;19.20;;
45274;SDS011;31019;43.780;25.948;2023-08-21T04:31:18;21.90;;;20.35;;
45274;SDS011;31019;43.780;25.948;2023-08-21T04:36:33;24.90;;;23.40;;
45274;SDS011;31019;43.780;25.948;2023-08-21T04:42:18;22.13;;;20.73;;
45274;SDS011;31019;43.780;25.948;2023-08-21T04:44:45;26.25;;;24.75;;
45274;SDS011;31019;43.780;25.948;2023-08-21T04:47:30;24.13;;;22.70;;
45274;SDS011;31019;43.780;25.948;2023-08-21T04:53:15;20.70;;;19.30;;
45274;SDS011;31019;43.780;25.948;2023-08-21T04:58:40;23.60;;;22.05;;
45274;SDS011;31019;43.780;25.948;2023-08-21T05:01:07;24.83;;;23.33;;
45274;SDS011;31019;43.780;25.948;2023-08-21T05:03:34;31.95;;;26.45;;
45274;SDS011;31019;43.780;25.948;2023-08-21T05:08:38;26.77;;;25.10;;
45274;SDS011;31019;43.780;25.948;2023-08-21T05:11:08;24.23;;;22.73;;
45274;SDS011;31019;43.780;25.948;2023-08-21T05:20:04;27.10;;;25.50;;
45274;SDS011;31019;43.780;25.948;2023-08-21T05:22:33;24.50;;;23.10;;
45274;SDS011;31019;43.780;25.948;2023-08-21T05:25:04;24.55;;;23.00;;
45274;SDS011;31019;43.780;25.948;2023-08-21T05:30:32;23.20;;;21.80;;
45274;SDS011;31019;43.780;25.948;2023-08-21T05:33:09;22.58;;;21.15;;
45274;SDS011;31019;43.780;25.948;2023-08-21T05:35:40;23.92;;;22.33;;
45274;SDS011;31019;43.780;25.948;2023-08-21T05:41:34;22.98;;;21.48;;
45274;SDS011;31019;43.780;25.948;2023-08-21T05:47:04;26.23;;;24.52;;
45274;SDS011;31019;43.780;25.948;2023-08-21T05:49:34;23.40;;;22.00;;
45274;SDS011;31019;43.780;25.948;2023-08-21T05:52:18;28.30;;;26.35;;
45274;SDS011;31019;43.780;25.948;2023-08-21T05:54:45;33.63;;;26.40;;
45274;SDS011;31019;43.780;25.948;2023-08-21T05:57:14;26.85;;;24.73;;
45274;SDS011;31019;43.780;25.948;2023-08-21T05:59:54;22.73;;;21.42;;
45274;SDS011;31019;43.780;25.948;2023-08-21T06:02:21;24.00;;;22.50;;
45274;SDS011;31019;43.780;25.948;2023-08-21T06:04:48;46.17;;;23.25;;
45274;SDS011;31019;43.780;25.948;2023-08-21T06:07:15;25.92;;;24.13;;
45274;SDS011;31019;43.780;25.948;2023-08-21T06:09:42;24.25;;;22.63;;
45274;SDS011;31019;43.780;25.948;2023-08-21T06:12:09;24.27;;;22.77;;
45274;SDS011;31019;43.780;25.948;2023-08-21T06:14:37;24.67;;;23.17;;
45274;SDS011;31019;43.780;25.948;2023-08-21T06:17:04;24.63;;;23.00;;
45274;SDS011;31019;43.780;25.948;2023-08-21T06:19:31;26.05;;;23.95;;
45274;SDS011;31019;43.780;25.948;2023-08-21T06:21:59;25.17;;;23.65;;
45274;SDS011;31019;43.780;25.948;2023-08-21T06:24:27;23.70;;;22.20;;
45274;SDS011;31019;43.780;25.948;2023-08-21T06:26:57;23.38;;;21.88;;
45274;SDS011;31019;43.780;25.948;2023-08-21T06:29:24;24.23;;;22.63;;
45274;SDS011;31019;43.780;25.948;2023-08-21T06:31:52;23.52;;;21.98;;
45274;SDS011;31019;43.780;25.948;2023-08-21T06:34:19;21.83;;;20.42;;
45274;SDS011;31019;43.780;25.948;2023-08-21T06:36:46;25.17;;;23.55;;
45274;SDS011;31019;43.780;25.948;2023-08-21T06:39:12;24.42;;;22.92;;
45274;SDS011;31019;43.780;25.948;2023-08-21T06:41:39;22.95;;;21.45;;
45274;SDS011;31019;43.780;25.948;2023-08-21T06:44:06;23.52;;;21.92;;
45274;SDS011;31019;43.780;25.948;2023-08-21T06:46:33;22.60;;;21.00;;
45274;SDS011;31019;43.780;25.948;2023-08-21T06:49:03;22.60;;;21.10;;
45274;SDS011;31019;43.780;25.948;2023-08-21T06:51:29;22.90;;;21.30;;
45274;SDS011;31019;43.780;25.948;2023-08-21T06:54:02;21.67;;;20.13;;
45274;SDS011;31019;43.780;25.948;2023-08-21T06:56:29;21.63;;;20.10;;
45274;SDS011;31019;43.780;25.948;2023-08-21T06:58:56;23.35;;;21.75;;
45274;SDS011;31019;43.780;25.948;2023-08-21T07:01:23;23.58;;;21.98;;
45274;SDS011;31019;43.780;25.948;2023-08-21T07:03:50;22.50;;;20.90;;
45274;SDS011;31019;43.780;25.948;2023-08-21T07:06:18;24.00;;;22.10;;
45274;SDS011;31019;43.780;25.948;2023-08-21T07:08:45;21.27;;;19.70;;
45274;SDS011;31019;43.780;25.948;2023-08-21T07:11:12;23.00;;;21.40;;
45274;SDS011;31019;43.780;25.948;2023-08-21T07:13:39;21.92;;;20.33;;
45274;SDS011;31019;43.780;25.948;2023-08-21T07:16:06;20.58;;;19.08;;
45274;SDS011;31019;43.780;25.948;2023-08-21T07:18:34;22.80;;;21.20;;
45274;SDS011;31019;43.780;25.948;2023-08-21T07:21:01;21.77;;;20.17;;
45274;SDS011;31019;43.780;25.948;2023-08-21T07:23:31;22.15;;;20.65;;
45274;SDS011;31019;43.780;25.948;2023-08-21T07:25:59;22.58;;;20.98;;
45274;SDS011;31019;43.780;25.948;2023-08-21T07:28:29;30.83;;;22.20;;
45274;SDS011;31019;43.780;25.948;2023-08-21T07:30:56;23.23;;;21.63;;
45274;SDS011;31019;43.780;25.948;2023-08-21T07:33:24;23.02;;;21.42;;
45274;SDS011;31019;43.780;25.948;2023-08-21T07:36:00;20.90;;;19.40;;
45274;SDS011;31019;43.780;25.948;2023-08-21T07:38:30;23.20;;;21.60;;
45274;SDS011;31019;43.780;25.948;2023-08-21T07:41:03;24.08;;;22.48;;
45274;SDS011;31019;43.780;25.948;2023-08-21T07:43:32;25.35;;;22.77;;
45274;SDS011;31019;43.780;25.948;2023-08-21T07:46:01;22.80;;;21.20;;
45274;SDS011;31019;43.780;25.948;2023-08-21T07:48:29;20.58;;;19.17;;
45274;SDS011;31019;43.780;25.948;2023-08-21T07:50:56;24.75;;;22.55;;
45274;SDS011;31019;43.780;25.948;2023-08-21T07:53:23;26.23;;;24.52;;
45274;SDS011;31019;43.780;25.948;2023-08-21T07:55:52;24.70;;;23.00;;
45274;SDS011;31019;43.780;25.948;2023-08-21T07:58:19;22.88;;;20.98;;
45274;SDS011;31019;43.780;25.948;2023-08-21T08:00:46;21.98;;;20.38;;
45274;SDS011;31019;43.780;25.948;2023-08-21T08:03:13;23.73;;;22.02;;
45274;SDS011;31019;43.780;25.948;2023-08-21T08:05:40;22.40;;;20.80;;
45274;SDS011;31019;43.780;25.948;2023-08-21T08:08:08;24.40;;;22.80;;
45274;SDS011;31019;43.780;25.948;2023-08-21T08:10:36;25.48;;;23.88;;
45274;SDS011;31019;43.780;25.948;2023-08-21T08:13:08;28.45;;;26.52;;
45274;SDS011;31019;43.780;25.948;2023-08-21T08:15:35;24.38;;;22.77;;
45274;SDS011;31019;43.780;25.948;2023-08-21T08:18:02;27.60;;;25.80;;
45274;SDS011;31019;43.780;25.948;2023-08-21T08:20:29;33.10;;;31.30;;
45274;SDS011;31019;43.780;25.948;2023-08-21T08:22:56;26.35;;;24.85;;
45274;SDS011;31019;43.780;25.948;2023-08-21T08:25:23;29.35;;;26.63;;
45274;SDS011;31019;43.780;25.948;2023-08-21T08:27:51;27.15;;;25.50;;
45274;SDS011;31019;43.780;25.948;2023-08-21T08:30:19;27.50;;;25.70;;
45274;SDS011;31019;43.780;25.948;2023-08-21T08:32:47;26.60;;;24.90;;
45274;SDS011;31019;43.780;25.948;2023-08-21T08:35:13;23.23;;;21.83;;
45274;SDS011;31019;43.780;25.948;2023-08-21T08:37:40;25.20;;;23.70;;
45274;SDS011;31019;43.780;25.948;2023-08-21T08:40:08;25.90;;;24.40;;
45274;SDS011;31019;43.780;25.948;2023-08-21T08:42:36;27.02;;;25.50;;
45274;SDS011;31019;43.780;25.948;2023-08-21T08:45:03;28.02;;;26.42;;
45274;SDS011;31019;43.780;25.948;2023-08-21T08:47:32;26.30;;;24.60;;
45274;SDS011;31019;43.780;25.948;2023-08-21T08:50:01;27.30;;;25.60;;
45274;SDS011;31019;43.780;25.948;2023-08-21T08:52:30;22.85;;;21.35;;
45274;SDS011;31019;43.780;25.948;2023-08-21T08:55:00;26.27;;;24.60;;
45274;SDS011;31019;43.780;25.948;2023-08-21T08:57:28;23.60;;;21.90;;
45274;SDS011;31019;43.780;25.948;2023-08-21T08:59:56;24.75;;;22.80;;
45274;SDS011;31019;43.780;25.948;2023-08-21T09:02:24;25.52;;;23.92;;
45274;SDS011;31019;43.780;25.948;2023-08-21T09:04:53;24.02;;;22.42;;
45274;SDS011;31019;43.780;25.948;2023-08-21T09:07:20;26.85;;;25.15;;
45274;SDS011;31019;43.780;25.948;2023-08-21T09:09:48;25.92;;;24.23;;
45274;SDS011;31019;43.780;25.948;2023-08-21T09:12:17;34.92;;;32.83;;
45274;SDS011;31019;43.780;25.948;2023-08-21T09:17:14;37.95;;;35.85;;
45274;SDS011;31019;43.780;25.948;2023-08-21T09:19:42;33.42;;;31.17;;
45274;SDS011;31019;43.780;25.948;2023-08-21T09:22:11;37.85;;;35.53;;
45274;SDS011;31019;43.780;25.948;2023-08-21T09:24:39;39.25;;;36.85;;
45274;SDS011;31019;43.780;25.948;2023-08-21T09:27:12;38.00;;;35.42;;
45274;SDS011;31019;43.780;25.948;2023-08-21T09:29:40;35.92;;;33.67;;
45274;SDS011;31019;43.780;25.948;2023-08-21T09:32:10;34.40;;;32.30;;
45274;SDS011;31019;43.780;25.948;2023-08-21T09:34:37;35.80;;;33.60;;
45274;SDS011;31019;43.780;25.948;2023-08-21T09:37:07;28.70;;;26.90;;
45274;SDS011;31019;43.780;25.948;2023-08-21T09:39:37;31.10;;;29.17;;
45274;SDS011;31019;43.780;25.948;2023-08-21T09:42:07;29.77;;;27.88;;
45274;SDS011;31019;43.780;25.948;2023-08-21T09:44:35;29.27;;;27.38;;
45274;SDS011;31019;43.780;25.948;2023-08-21T09:47:02;28.75;;;26.85;;
45274;SDS011;31019;43.780;25.948;2023-08-21T09:49:30;27.20;;;25.40;;
45274;SDS011;31019;43.780;25.948;2023-08-21T09:51:59;26.02;;;24.23;;
45274;SDS011;31019;43.780;25.948;2023-08-21T09:54:28;26.38;;;24.58;;
45274;SDS011;31019;43.780;25.948;2023-08-21T09:56:56;29.27;;;27.42;;
45274;SDS011;31019;43.780;25.948;2023-08-21T10:01:54;29.35;;;27.65;;
45274;SDS011;31019;43.780;25.948;2023-08-21T10:04:25;29.10;;;27.48;;
45274;SDS011;31019;43.780;25.948;2023-08-21T10:06:56;28.10;;;26.40;;
45274;SDS011;31019;43.780;25.948;2023-08-21T10:09:23;26.95;;;25.35;;
45274;SDS011;31019;43.780;25.948;2023-08-21T10:11:53;28.20;;;26.50;;
45274;SDS011;31019;43.780;25.948;2023-08-21T10:14:23;28.10;;;26.35;;
45274;SDS011;31019;43.780;25.948;2023-08-21T10:16:51;27.60;;;25.85;;
45274;SDS011;31019;43.780;25.948;2023-08-21T10:19:19;27.02;;;25.23;;
45274;SDS011;31019;43.780;25.948;2023-08-21T10:21:51;29.50;;;27.80;;
45274;SDS011;31019;43.780;25.948;2023-08-21T10:24:34;26.45;;;24.85;;
45274;SDS011;31019;43.780;25.948;2023-08-21T10:27:02;22.50;;;20.95;;
45274;SDS011;31019;43.780;25.948;2023-08-21T10:29:31;26.58;;;24.83;;
45274;SDS011;31019;43.780;25.948;2023-08-21T10:31:58;25.92;;;24.13;;
45274;SDS011;31019;43.780;25.948;2023-08-21T10:34:31;23.83;;;22.23;;
45274;SDS011;31019;43.780;25.948;2023-08-21T10:39:30;23.65;;;22.00;;
45274;SDS011;31019;43.780;25.948;2023-08-21T10:42:00;24.83;;;23.23;;
45274;SDS011;31019;43.780;25.948;2023-08-21T10:47:30;25.83;;;24.13;;
45274;SDS011;31019;43.780;25.948;2023-08-21T10:49:58;26.48;;;24.88;;
45274;SDS011;31019;43.780;25.948;2023-08-21T10:52:27;25.30;;;23.70;;
45274;SDS011;31019;43.780;25.948;2023-08-21T10:54:55;24.90;;;23.30;;
45274;SDS011;31019;43.780;25.948;2023-08-21T10:57:23;23.98;;;22.20;;
45274;SDS011;31019;43.780;25.948;2023-08-21T10:59:55;23.98;;;22.38;;
45274;SDS011;31019;43.780;25.948;2023-08-21T11:02:22;31.08;;;29.08;;
45274;SDS011;31019;43.780;25.948;2023-08-21T11:04:50;27.45;;;25.75;;
45274;SDS011;31019;43.780;25.948;2023-08-21T11:07:18;27.63;;;25.92;;
45274;SDS011;31019;43.780;25.948;2023-08-21T11:09:45;37.53;;;35.42;;
45274;SDS011;31019;43.780;25.948;2023-08-21T11:12:12;30.92;;;28.98;;
45274;SDS011;31019;43.780;25.948;2023-08-21T11:14:41;28.85;;;27.05;;
45274;SDS011;31019;43.780;25.948;2023-08-21T11:17:15;26.42;;;24.73;;
45274;SDS011;31019;43.780;25.948;2023-08-21T11:19:43;30.75;;;28.85;;
45274;SDS011;31019;43.780;25.948;2023-08-21T11:22:11;30.90;;;29.08;;
45274;SDS011;31019;43.780;25.948;2023-08-21T11:24:42;36.95;;;34.70;;
45274;SDS011;31019;43.780;25.948;2023-08-21T11:27:11;36.75;;;34.45;;
45274;SDS011;31019;43.780;25.948;2023-08-21T11:29:41;29.70;;;28.00;;
45274;SDS011;31019;43.780;25.948;2023-08-21T11:34:55;35.58;;;32.92;;
45274;SDS011;31019;43.780;25.948;2023-08-21T11:37:23;27.50;;;25.70;;
45274;SDS011;31019;43.780;25.948;2023-08-21T11:39:55;27.73;;;25.92;;
45274;SDS011;31019;43.780;25.948;2023-08-21T11:42:30;24.35;;;22.75;;
45274;SDS011;31019;43.780;25.948;2023-08-21T11:44:58;26.13;;;24.42;;
45274;SDS011;31019;43.780;25.948;2023-08-21T11:47:31;31.35;;;29.20;;
45274;SDS011;31019;43.780;25.948;2023-08-21T11:50:02;29.58;;;27.65;;
45274;SDS011;31019;43.780;25.948;2023-08-21T11:52:29;30.75;;;28.88;;
45274;SDS011;31019;43.780;25.948;2023-08-21T11:55:06;31.25;;;29.35;;
45274;SDS011;31019;43.780;25.948;2023-08-21T11:57:34;27.15;;;25.35;;
45274;SDS011;31019;43.780;25.948;2023-08-21T12:00:01;33.53;;;31.30;;
45274;SDS011;31019;43.780;25.948;2023-08-21T12:02:33;32.05;;;29.95;;
45274;SDS011;31019;43.780;25.948;2023-08-21T12:05:03;26.08;;;24.17;;
45274;SDS011;31019;43.780;25.948;2023-08-21T12:07:31;25.17;;;23.38;;
45274;SDS011;31019;43.780;25.948;2023-08-21T12:09:58;27.75;;;25.70;;
45274;SDS011;31019;43.780;25.948;2023-08-21T12:12:31;29.98;;;28.00;;
45274;SDS011;31019;43.780;25.948;2023-08-21T12:17:24;25.17;;;23.48;;
45274;SDS011;31019;43.780;25.948;2023-08-21T12:19:52;23.75;;;22.15;;
45274;SDS011;31019;43.780;25.948;2023-08-21T12:22:19;25.75;;;24.05;;
45274;SDS011;31019;43.780;25.948;2023-08-21T12:24:46;27.38;;;25.58;;
45274;SDS011;31019;43.780;25.948;2023-08-21T12:27:13;26.08;;;24.38;;
45274;SDS011;31019;43.780;25.948;2023-08-21T12:29:43;41.97;;;25.85;;
45274;SDS011;31019;43.780;25.948;2023-08-21T12:32:10;24.23;;;22.52;;
45274;SDS011;31019;43.780;25.948;2023-08-21T12:34:37;23.40;;;21.90;;
45274;SDS011;31019;43.780;25.948;2023-08-21T12:37:05;24.30;;;22.80;;
45274;SDS011;31019;43.780;25.948;2023-08-21T12:39:32;26.27;;;24.67;;
45274;SDS011;31019;43.780;25.948;2023-08-21T12:41:59;32.08;;;30.27;;
45274;SDS011;31019;43.780;25.948;2023-08-21T12:44:26;29.65;;;27.95;;
45274;SDS011;31019;43.780;25.948;2023-08-21T12:46:52;31.27;;;29.48;;
45274;SDS011;31019;43.780;25.948;2023-08-21T12:49:19;28.00;;;26.10;;
45274;SDS011;31019;43.780;25.948;2023-08-21T12:51:46;29.85;;;27.55;;
45274;SDS011;31019;43.780;25.948;2023-08-21T12:54:14;27.02;;;25.23;;
45274;SDS011;31019;43.780;25.948;2023-08-21T12:56:41;28.65;;;26.95;;
45274;SDS011;31019;43.780;25.948;2023-08-21T12:59:09;25.55;;;23.95;;
45274;SDS011;31019;43.780;25.948;2023-08-21T13:01:36;27.35;;;25.65;;
45274;SDS011;31019;43.780;25.948;2023-08-21T13:04:03;26.33;;;24.73;;
45274;SDS011;31019;43.780;25.948;2023-08-21T13:06:30;28.80;;;27.10;;
45274;SDS011;31019;43.780;25.948;2023-08-21T13:08:57;29.40;;;27.60;;
45274;SDS011;31019;43.780;25.948;2023-08-21T13:11:31;25.92;;;24.33;;
45274;SDS011;31019;43.780;25.948;2023-08-21T13:13:58;25.58;;;23.90;;
45274;SDS011;31019;43.780;25.948;2023-08-21T13:16:25;30.48;;;28.65;;
45274;SDS011;31019;43.780;25.948;2023-08-21T13:18:52;32.75;;;30.85;;
45274;SDS011;31019;43.780;25.948;2023-08-21T13:24:04;28.30;;;26.60;;
45274;SDS011;31019;43.780;25.948;2023-08-21T13:26:33;27.85;;;26.15;;
45274;SDS011;31019;43.780;25.948;2023-08-21T13:28:59;30.63;;;28.73;;
45274;SDS011;31019;43.780;25.948;2023-08-21T13:31:26;33.92;;;32.03;;
45274;SDS011;31019;43.780;25.948;2023-08-21T13:33:54;36.28;;;34.08;;
45274;SDS011;31019;43.780;25.948;2023-08-21T13:36:21;25.42;;;23.73;;
45274;SDS011;31019;43.780;25.948;2023-08-21T13:38:48;26.73;;;24.83;;
45274;SDS011;31019;43.780;25.948;2023-08-21T13:41:15;30.85;;;29.05;;
45274;SDS011;31019;43.780;25.948;2023-08-21T13:43:43;31.00;;;29.10;;
45274;SDS011;31019;43.780;25.948;2023-08-21T13:46:09;27.05;;;25.15;;
45274;SDS011;31019;43.780;25.948;2023-08-21T13:48:37;21.88;;;20.35;;
45274;SDS011;31019;43.780;25.948;2023-08-21T13:51:04;22.40;;;20.80;;
45274;SDS011;31019;43.780;25.948;2023-08-21T13:53:31;25.60;;;23.88;;
45274;SDS011;31019;43.780;25.948;2023-08-21T13:55:57;23.27;;;21.67;;
45274;SDS011;31019;43.780;25.948;2023-08-21T13:58:25;23.38;;;21.77;;
45274;SDS011;31019;43.780;25.948;2023-08-21T14:00:53;22.77;;;21.27;;
45274;SDS011;31019;43.780;25.948;2023-08-21T14:03:22;22.13;;;20.67;;
45274;SDS011;31019;43.780;25.948;2023-08-21T14:05:49;24.98;;;23.38;;
45274;SDS011;31019;43.780;25.948;2023-08-21T14:08:16;24.02;;;22.42;;
45274;SDS011;31019;43.780;25.948;2023-08-21T14:10:43;23.50;;;22.00;;
45274;SDS011;31019;43.780;25.948;2023-08-21T14:13:10;21.42;;;20.02;;
45274;SDS011;31019;43.780;25.948;2023-08-21T14:15:37;21.45;;;19.88;;
45274;SDS011;31019;43.780;25.948;2023-08-21T14:18:05;58.80;;;22.27;;
45274;SDS011;31019;43.780;25.948;2023-08-21T14:20:32;24.67;;;22.98;;
45274;SDS011;31019;43.780;25.948;2023-08-21T14:22:59;21.20;;;19.70;;
45274;SDS011;31019;43.780;25.948;2023-08-21T14:25:26;22.67;;;21.02;;
45274;SDS011;31019;43.780;25.948;2023-08-21T14:27:53;22.50;;;20.88;;
45274;SDS011;31019;43.780;25.948;2023-08-21T14:30:21;24.60;;;22.90;;
45274;SDS011;31019;43.780;25.948;2023-08-21T14:32:50;24.15;;;22.45;;
45274;SDS011;31019;43.780;25.948;2023-08-21T14:35:18;22.73;;;21.08;;
45274;SDS011;31019;43.780;25.948;2023-08-21T14:37:45;22.13;;;20.40;;
45274;SDS011;31019;43.780;25.948;2023-08-21T14:40:12;23.88;;;22.27;;
45274;SDS011;31019;43.780;25.948;2023-08-21T14:42:39;24.40;;;22.25;;
45274;SDS011;31019;43.780;25.948;2023-08-21T14:45:07;23.60;;;21.90;;
45274;SDS011;31019;43.780;25.948;2023-08-21T14:47:34;22.27;;;20.60;;
45274;SDS011;31019;43.780;25.948;2023-08-21T14:50:01;22.73;;;21.13;;
45274;SDS011;31019;43.780;25.948;2023-08-21T14:52:30;23.55;;;21.95;;
45274;SDS011;31019;43.780;25.948;2023-08-21T14:54:56;23.45;;;21.85;;
45274;SDS011;31019;43.780;25.948;2023-08-21T14:57:24;23.67;;;21.98;;
45274;SDS011;31019;43.780;25.948;2023-08-21T14:59:50;21.27;;;19.88;;
45274;SDS011;31019;43.780;25.948;2023-08-21T15:02:17;22.80;;;21.10;;
45274;SDS011;31019;43.780;25.948;2023-08-21T15:04:45;24.08;;;22.50;;
45274;SDS011;31019;43.780;25.948;2023-08-21T15:07:12;23.50;;;21.70;;
45274;SDS011;31019;43.780;25.948;2023-08-21T15:09:40;29.90;;;25.80;;
45274;SDS011;31019;43.780;25.948;2023-08-21T15:12:08;23.13;;;21.52;;
45274;SDS011;31019;43.780;25.948;2023-08-21T15:14:35;23.85;;;22.25;;
45274;SDS011;31019;43.780;25.948;2023-08-21T15:17:02;22.30;;;20.90;;
45274;SDS011;31019;43.780;25.948;2023-08-21T15:19:28;20.92;;;19.42;;
45274;SDS011;31019;43.780;25.948;2023-08-21T15:21:55;21.80;;;20.30;;
45274;SDS011;31019;43.780;25.948;2023-08-21T15:24:22;22.63;;;21.02;;
45274;SDS011;31019;43.780;25.948;2023-08-21T15:26:50;20.80;;;19.40;;
45274;SDS011;31019;43.780;25.948;2023-08-21T15:29:17;21.65;;;20.05;;
45274;SDS011;31019;43.780;25.948;2023-08-21T15:31:44;24.70;;;22.80;;
45274;SDS011;31019;43.780;25.948;2023-08-21T15:34:11;22.25;;;20.70;;
45274;SDS011;31019;43.780;25.948;2023-08-21T15:36:38;28.17;;;20.95;;
45274;SDS011;31019;43.780;25.948;2023-08-21T15:39:05;21.45;;;19.85;;
45274;SDS011;31019;43.780;25.948;2023-08-21T15:41:32;22.00;;;20.40;;
45274;SDS011;31019;43.780;25.948;2023-08-21T15:44:00;22.95;;;21.25;;
45274;SDS011;31019;43.780;25.948;2023-08-21T15:46:27;22.42;;;20.73;;
45274;SDS011;31019;43.780;25.948;2023-08-21T15:48:54;21.63;;;20.02;;
45274;SDS011;31019;43.780;25.948;2023-08-21T15:51:21;21.42;;;19.83;;
45274;SDS011;31019;43.780;25.948;2023-08-21T15:53:48;22.30;;;20.70;;
45274;SDS011;31019;43.780;25.948;2023-08-21T15:56:14;22.48;;;20.73;;
45274;SDS011;31019;43.780;25.948;2023-08-21T15:58:41;24.05;;;22.35;;
45274;SDS011;31019;43.780;25.948;2023-08-21T16:01:10;24.50;;;22.70;;
45274;SDS011;31019;43.780;25.948;2023-08-21T16:03:37;26.23;;;24.42;;
45274;SDS011;31019;43.780;25.948;2023-08-21T16:06:04;26.05;;;24.35;;
45274;SDS011;31019;43.780;25.948;2023-08-21T16:08:32;25.02;;;23.23;;
45274;SDS011;31019;43.780;25.948;2023-08-21T16:10:59;25.52;;;23.73;;
45274;SDS011;31019;43.780;25.948;2023-08-21T16:13:26;24.60;;;22.70;;